South Hetton, United Kingdom
Current Conditions -  °F | °C
As of 3:50 AM on Monday 24 Nov 2014 (Local Time) from EGNT Reporting Station
Few Clouds Few Clouds  
Wind Chill: 34°   Ceiling: Unl
Heat Index: 41°   Visibility: 6mi
Dew Point: 39°   Wind: 12mph
Humidity: 93%   Direction: 260°W
Pressure: 30.09"   Gusts: NA
Location:  54.8°N, 1.41°W
Report Text: EGNT 240350Z 26010KT 9999 FEW010 05/04 Q1019
Loading
Personal Weather Stations






























Interactive Weather Map New forecast layout! Learn more

10-Day Weather Forecast

Advertisements
Track Severe Weather on mobile